Time;durP1;ratioP1;P1;durP2;ratioP2;P2;SDS_P1;SDS_P2;PMS_P1;PMS_P2;Temp;Humidity;BMP_temperature;BMP_pressure;BME280_temperature;BME280_humidity;BME280_pressure;Samples;Min_cycle;Max_cycle;Signal;HPM_P1;HPM_P2
2021/05/19 00:01:37;;;;;;;24.75;18.20;;;10.90;74.70;;;;;;5036807;28;20095;-79
2021/05/19 00:04:03;;;;;;;24.50;17.10;;;10.90;74.90;;;;;;5021012;28;20059;-78
2021/05/19 00:06:29;;;;;;;20.98;16.60;;;10.90;75.00;;;;;;5020583;28;20432;-77
2021/05/19 00:08:55;;;;;;;20.08;16.25;;;10.90;75.10;;;;;;5053748;28;20052;-77
2021/05/19 00:11:21;;;;;;;21.55;16.35;;;10.90;75.10;;;;;;5020100;28;20099;-81
2021/05/19 00:13:47;;;;;;;21.33;16.27;;;10.80;75.10;;;;;;5053498;28;20055;-78
2021/05/19 00:16:13;;;;;;;21.77;16.77;;;10.80;75.20;;;;;;5020754;28;20033;-78
2021/05/19 00:18:41;;;;;;;24.48;17.52;;;10.80;75.30;;;;;;5036533;28;20052;-77
2021/05/19 00:21:07;;;;;;;26.55;18.88;;;10.80;75.40;;;;;;5037087;28;20053;-78
2021/05/19 00:23:36;;;;;;;24.25;18.40;;;10.80;75.40;;;;;;5036495;28;20178;-78
2021/05/19 00:26:11;;;;;;;31.27;19.02;;;10.80;75.60;;;;;;5053934;28;20120;-78
2021/05/19 00:28:45;;;;;;;22.30;18.38;;;10.80;75.70;;;;;;5021951;28;20204;-77
2021/05/19 00:31:11;;;;;;;23.80;18.80;;;10.80;75.70;;;;;;5036962;28;20096;-78
2021/05/19 00:33:37;;;;;;;22.77;17.35;;;10.90;75.80;;;;;;5035939;28;20048;-78
2021/05/19 00:36:03;;;;;;;26.05;19.20;;;10.90;75.80;;;;;;5033285;28;20394;-76
2021/05/19 00:38:29;;;;;;;22.73;17.75;;;10.90;75.90;;;;;;5019655;28;20124;-77
2021/05/19 00:40:56;;;;;;;24.42;18.90;;;10.80;76.00;;;;;;5017437;28;20124;-78
2021/05/19 00:43:24;;;;;;;27.98;17.90;;;10.90;76.10;;;;;;5033280;28;20072;-77
2021/05/19 00:45:50;;;;;;;23.52;18.13;;;10.90;76.20;;;;;;5000317;28;20041;-77
2021/05/19 00:48:16;;;;;;;21.58;16.90;;;10.90;76.30;;;;;;5000372;28;20359;-77
2021/05/19 00:50:42;;;;;;;23.45;17.88;;;10.90;76.40;;;;;;5015573;28;20049;-77
2021/05/19 00:53:07;;;;;;;24.33;17.77;;;10.90;76.50;;;;;;4999808;28;20553;-76
2021/05/19 00:55:33;;;;;;;20.15;16.23;;;10.90;76.50;;;;;;5015986;28;20049;-78
2021/05/19 00:57:59;;;;;;;21.00;16.38;;;10.90;76.50;;;;;;5000276;28;20072;-77
2021/05/19 01:00:25;;;;;;;20.33;15.70;;;10.90;76.60;;;;;;5016548;28;20465;-79
2021/05/19 01:02:52;;;;;;;19.08;15.48;;;10.90;76.70;;;;;;5015823;28;20042;-76
2021/05/19 01:05:37;;;;;;;20.65;15.38;;;10.90;76.80;;;;;;4983895;28;20064;-77
2021/05/19 01:10:49;;;;;;;18.67;15.40;;;10.90;76.80;;;;;;5001626;28;20848;-77
2021/05/19 01:13:15;;;;;;;19.48;16.08;;;10.90;76.80;;;;;;5015941;28;20064;-78
2021/05/19 01:15:41;;;;;;;22.25;16.23;;;10.90;76.90;;;;;;5015535;28;20163;-78
2021/05/19 01:18:07;;;;;;;18.75;15.32;;;10.90;77.00;;;;;;5034047;28;20569;-77
2021/05/19 01:20:35;;;;;;;23.73;15.75;;;10.90;77.10;;;;;;5015600;28;20379;-80
2021/05/19 01:23:01;;;;;;;23.40;16.17;;;11.00;77.10;;;;;;5000021;28;20047;-78
2021/05/19 01:25:27;;;;;;;21.52;15.77;;;10.90;77.10;;;;;;4999551;28;20478;-77
2021/05/19 01:27:57;;;;;;;23.45;16.42;;;10.90;77.20;;;;;;5031991;28;20052;-78
2021/05/19 01:30:23;;;;;;;18.95;16.02;;;11.00;77.40;;;;;;5015603;28;20061;-78
2021/05/19 01:32:49;;;;;;;20.98;15.68;;;11.00;77.40;;;;;;5031538;28;20120;-78
2021/05/19 01:35:15;;;;;;;23.15;17.77;;;10.90;77.40;;;;;;5015816;28;20124;-78
2021/05/19 01:37:42;;;;;;;24.83;16.90;;;11.00;77.60;;;;;;5015170;28;20371;-79
2021/05/19 01:40:08;;;;;;;23.02;17.23;;;10.90;77.50;;;;;;5015803;28;20057;-77
2021/05/19 01:42:34;;;;;;;18.75;15.68;;;10.90;77.50;;;;;;4998840;28;20124;-80
2021/05/19 01:45:00;;;;;;;20.88;17.58;;;10.90;77.60;;;;;;5031528;28;20076;-76
2021/05/19 01:47:42;;;;;;;20.40;15.82;;;10.90;77.60;;;;;;5015258;28;20042;-77
2021/05/19 01:50:12;;;;;;;22.40;17.15;;;10.90;77.70;;;;;;5015745;28;20056;-77
2021/05/19 01:52:38;;;;;;;24.58;16.85;;;10.90;77.80;;;;;;5033040;28;20374;-81
2021/05/19 01:55:06;;;;;;;25.15;17.25;;;10.90;77.80;;;;;;4998883;28;20049;-78
2021/05/19 01:57:32;;;;;;;21.05;17.95;;;11.00;77.90;;;;;;5015600;28;20041;-77
2021/05/19 01:59:58;;;;;;;22.27;17.42;;;10.90;77.90;;;;;;5015055;28;20251;-79
2021/05/19 02:02:24;;;;;;;23.08;17.17;;;11.00;78.00;;;;;;5031667;28;20438;-77
2021/05/19 02:04:50;;;;;;;22.67;17.58;;;10.90;77.90;;;;;;5013936;28;20049;-77
2021/05/19 02:07:15;;;;;;;21.90;17.65;;;11.00;78.00;;;;;;5015500;28;20096;-76
2021/05/19 02:09:41;;;;;;;21.08;17.98;;;11.00;78.10;;;;;;5014249;28;20045;-81
2021/05/19 02:12:07;;;;;;;21.38;18.42;;;11.00;78.10;;;;;;5015142;28;20061;-77
2021/05/19 02:14:33;;;;;;;20.50;17.80;;;11.00;78.10;;;;;;5015219;28;20048;-78
2021/05/19 02:17:00;;;;;;;20.83;17.25;;;11.00;78.10;;;;;;4997615;28;20192;-78
2021/05/19 02:19:27;;;;;;;22.75;17.27;;;10.90;78.00;;;;;;4998877;28;20103;-77
2021/05/19 02:21:52;;;;;;;22.70;17.63;;;10.90;78.20;;;;;;5034947;28;20086;-78
2021/05/19 02:24:18;;;;;;;22.30;16.55;;;10.90;78.10;;;;;;5018351;28;20044;-78
2021/05/19 02:26:44;;;;;;;20.98;17.02;;;11.00;78.20;;;;;;5027216;28;20042;-82
2021/05/19 02:29:11;;;;;;;21.95;17.70;;;11.00;78.30;;;;;;5034304;28;20044;-78
2021/05/19 02:31:37;;;;;;;23.88;17.80;;;11.00;78.20;;;;;;5018514;28;20555;-80
2021/05/19 02:34:03;;;;;;;22.40;17.58;;;10.90;78.20;;;;;;5006039;28;20537;-77
2021/05/19 02:36:32;;;;;;;22.77;16.42;;;11.00;78.30;;;;;;5015035;28;20049;-77
2021/05/19 02:38:57;;;;;;;23.20;16.52;;;10.90;79.00;;;;;;4980730;28;20578;-76
2021/05/19 02:41:24;;;;;;;22.38;16.55;;;11.00;78.30;;;;;;5034966;28;20112;-77
2021/05/19 02:43:50;;;;;;;21.75;17.05;;;10.90;78.30;;;;;;5032338;28;20041;-78
2021/05/19 02:46:16;;;;;;;21.25;15.60;;;10.90;78.30;;;;;;5017635;28;20144;-78
2021/05/19 02:48:42;;;;;;;22.08;16.88;;;10.90;78.30;;;;;;5033606;28;20139;-76
2021/05/19 02:51:10;;;;;;;20.10;15.90;;;10.90;78.40;;;;;;5015380;28;20073;-76
2021/05/19 02:53:36;;;;;;;21.20;16.17;;;10.90;78.40;;;;;;5007514;28;20136;-78
2021/05/19 02:56:04;;;;;;;23.15;17.27;;;10.90;78.40;;;;;;5023355;28;20136;-78
2021/05/19 02:58:32;;;;;;;20.08;15.35;;;10.90;78.30;;;;;;5043167;28;20193;-77
2021/05/19 03:00:59;;;;;;;20.73;15.35;;;10.90;78.50;;;;;;5026415;28;20045;-79
2021/05/19 03:03:25;;;;;;;20.15;15.27;;;11.00;78.50;;;;;;5013788;28;20052;-78
2021/05/19 03:05:51;;;;;;;23.88;16.77;;;10.90;78.60;;;;;;5014194;28;20088;-80
2021/05/19 03:08:17;;;;;;;20.80;16.05;;;11.00;78.60;;;;;;5020412;28;20048;-77
2021/05/19 03:10:43;;;;;;;20.35;15.80;;;11.00;78.70;;;;;;5003846;28;20402;-78
2021/05/19 03:13:08;;;;;;;21.52;15.25;;;11.00;78.60;;;;;;5025714;28;20052;-78
2021/05/19 03:15:34;;;;;;;21.02;15.13;;;11.00;78.60;;;;;;5027575;28;20037;-78
2021/05/19 03:18:00;;;;;;;23.27;15.82;;;11.00;78.60;;;;;;5020320;28;20060;-78
2021/05/19 03:20:27;;;;;;;25.42;15.65;;;10.90;78.60;;;;;;5024583;28;20104;-79
2021/05/19 03:22:53;;;;;;;21.50;16.02;;;10.90;78.60;;;;;;5024134;28;20144;-80
2021/05/19 03:25:19;;;;;;;21.65;15.98;;;11.00;78.70;;;;;;5009378;28;20124;-78
2021/05/19 03:27:44;;;;;;;23.63;16.70;;;11.00;78.70;;;;;;5003682;28;20124;-77
2021/05/19 03:30:12;;;;;;;23.70;16.45;;;10.90;78.70;;;;;;5012560;28;20524;-76
2021/05/19 03:32:38;;;;;;;22.77;15.88;;;11.00;78.80;;;;;;5026063;28;20433;-76
2021/05/19 03:35:06;;;;;;;22.92;15.45;;;10.90;78.80;;;;;;5012525;28;20057;-79
2021/05/19 03:37:32;;;;;;;22.00;16.48;;;10.90;78.70;;;;;;5000657;28;20064;-76
2021/05/19 03:40:01;;;;;;;21.88;16.05;;;11.00;78.70;;;;;;5027153;28;20044;-77
2021/05/19 03:42:27;;;;;;;21.80;16.50;;;11.00;78.70;;;;;;4999253;28;20052;-77
2021/05/19 03:44:55;;;;;;;21.95;16.23;;;11.00;78.60;;;;;;5013526;28;20041;-79
2021/05/19 03:47:21;;;;;;;21.67;16.80;;;11.00;78.70;;;;;;5019387;28;20096;-76
2021/05/19 03:49:48;;;;;;;22.77;15.35;;;10.90;78.70;;;;;;4997873;28;20050;-77
2021/05/19 03:52:14;;;;;;;24.10;16.52;;;11.00;78.60;;;;;;5014185;28;20056;-78
2021/05/19 03:54:40;;;;;;;21.42;16.08;;;10.90;78.60;;;;;;5014625;28;20049;-76
2021/05/19 03:57:06;;;;;;;21.25;15.18;;;10.90;78.60;;;;;;5013645;28;20528;-77
2021/05/19 03:59:32;;;;;;;22.50;16.80;;;10.90;78.50;;;;;;4998801;28;20187;-78
2021/05/19 04:01:58;;;;;;;24.33;16.77;;;10.90;78.50;;;;;;5015090;28;20084;-80
2021/05/19 04:04:24;;;;;;;20.67;15.70;;;10.90;78.60;;;;;;5015173;28;20044;-77
2021/05/19 04:06:49;;;;;;;24.15;16.77;;;10.90;78.50;;;;;;5028428;28;20155;-77
2021/05/19 04:09:18;;;;;;;24.13;17.38;;;10.90;78.50;;;;;;4998883;28;20042;-80
2021/05/19 04:11:44;;;;;;;22.48;16.75;;;10.90;78.60;;;;;;5015734;28;20045;-78
2021/05/19 04:14:10;;;;;;;28.30;17.73;;;10.90;78.50;;;;;;5014551;28;20140;-78
2021/05/19 04:16:36;;;;;;;21.83;16.63;;;10.90;78.50;;;;;;5031238;28;20078;-77
2021/05/19 04:19:03;;;;;;;22.10;16.63;;;11.00;78.60;;;;;;5013962;28;20494;-83
2021/05/19 04:21:29;;;;;;;22.80;16.92;;;10.90;78.40;;;;;;5031441;28;20065;-79
2021/05/19 04:23:57;;;;;;;22.90;15.77;;;10.90;78.50;;;;;;5014531;28;20080;-79
2021/05/19 04:26:23;;;;;;;22.50;16.73;;;10.90;78.40;;;;;;5030334;28;20600;-78
2021/05/19 04:28:48;;;;;;;23.77;16.48;;;10.90;78.40;;;;;;5016699;28;20045;-80
2021/05/19 04:31:14;;;;;;;25.58;18.45;;;10.90;78.50;;;;;;5003965;28;20585;-78
2021/05/19 04:33:40;;;;;;;24.02;17.98;;;11.00;78.50;;;;;;5037344;28;20045;-78
2021/05/19 04:36:06;;;;;;;27.23;18.63;;;10.90;78.40;;;;;;5036838;28;20041;-81
2021/05/19 04:38:32;;;;;;;26.27;18.55;;;11.00;78.50;;;;;;5020611;28;20056;-78
2021/05/19 04:40:58;;;;;;;25.17;17.73;;;11.00;78.50;;;;;;5004114;28;20068;-78
2021/05/19 04:43:24;;;;;;;28.52;18.73;;;11.00;78.40;;;;;;5020391;28;20123;-78
2021/05/19 04:45:52;;;;;;;26.60;18.92;;;11.00;78.30;;;;;;5021842;28;20075;-78
2021/05/19 04:48:20;;;;;;;25.45;20.33;;;11.00;78.40;;;;;;4986479;28;20140;-77
2021/05/19 04:50:46;;;;;;;25.00;19.55;;;11.00;78.30;;;;;;5000964;28;20045;-80
2021/05/19 04:53:12;;;;;;;24.00;16.98;;;11.00;78.30;;;;;;5036968;28;20056;-80
2021/05/19 04:55:38;;;;;;;26.90;18.88;;;11.00;78.20;;;;;;5021491;28;20458;-79
2021/05/19 04:58:05;;;;;;;26.83;19.63;;;11.00;78.10;;;;;;5001395;28;20048;-78
2021/05/19 05:00:32;;;;;;;28.48;18.88;;;11.10;78.10;;;;;;5000612;28;20041;-78
2021/05/19 05:02:59;;;;;;;26.55;19.38;;;11.10;78.10;;;;;;5004137;28;20045;-79
2021/05/19 05:05:24;;;;;;;27.38;18.92;;;11.10;78.10;;;;;;5020372;28;20052;-79
2021/05/19 05:07:50;;;;;;;27.05;18.65;;;11.10;78.10;;;;;;5053783;28;20132;-78
2021/05/19 05:10:16;;;;;;;34.88;22.08;;;11.10;77.90;;;;;;5000279;28;20041;-79
2021/05/19 05:12:43;;;;;;;28.20;20.48;;;11.10;77.90;;;;;;5017585;28;20071;-78
2021/05/19 05:15:14;;;;;;;31.98;22.08;;;11.10;77.90;;;;;;5017127;28;20160;-79
2021/05/19 05:17:40;;;;;;;30.60;22.38;;;11.10;77.80;;;;;;5017142;28;20037;-79
2021/05/19 05:20:08;;;;;;;33.63;21.35;;;11.20;77.90;;;;;;5014934;28;20104;-79
2021/05/19 05:22:35;;;;;;;39.72;24.02;;;11.20;77.90;;;;;;5020066;28;20098;-79
2021/05/19 05:25:00;;;;;;;33.78;23.15;;;11.20;78.00;;;;;;5020289;28;20403;-79
2021/05/19 05:27:26;;;;;;;32.63;22.42;;;11.20;77.90;;;;;;5020073;28;20177;-79
2021/05/19 05:29:52;;;;;;;31.20;21.98;;;11.20;78.00;;;;;;5037035;28;20057;-79
2021/05/19 05:32:18;;;;;;;32.13;22.15;;;11.20;78.10;;;;;;5020773;28;20393;-81
2021/05/19 05:34:44;;;;;;;37.47;22.80;;;11.20;78.00;;;;;;5025306;28;20478;-79
2021/05/19 05:37:10;;;;;;;34.13;23.05;;;11.30;78.10;;;;;;5001345;28;20045;-79
2021/05/19 05:39:35;;;;;;;41.35;23.27;;;11.30;78.10;;;;;;5029040;28;20484;-79
2021/05/19 05:42:01;;;;;;;36.30;24.05;;;11.30;78.10;;;;;;5022080;28;20072;-78
2021/05/19 05:44:27;;;;;;;40.28;25.40;;;11.30;78.10;;;;;;5017152;28;20049;-80
2021/05/19 05:46:53;;;;;;;36.65;25.80;;;11.30;78.00;;;;;;4984619;28;20053;-77
2021/05/19 05:49:18;;;;;;;38.35;25.08;;;11.40;78.10;;;;;;5000387;28;20068;-82
2021/05/19 05:51:44;;;;;;;37.90;25.70;;;11.40;78.10;;;;;;5001050;28;20052;-79
2021/05/19 05:54:11;;;;;;;31.10;23.45;;;11.40;78.10;;;;;;4991684;28;20409;-81
2021/05/19 05:56:40;;;;;;;36.97;25.17;;;11.50;78.10;;;;;;5020267;28;20076;-80
2021/05/19 05:59:09;;;;;;;37.45;24.75;;;11.50;78.10;;;;;;5009826;28;20124;-79
2021/05/19 06:01:35;;;;;;;38.35;25.25;;;11.50;78.00;;;;;;5026975;28;20119;-80
2021/05/19 06:04:01;;;;;;;42.45;25.35;;;11.50;77.90;;;;;;5010146;28;20072;-77
2021/05/19 06:06:27;;;;;;;38.42;25.25;;;11.60;78.00;;;;;;5008749;28;20061;-79
2021/05/19 06:08:53;;;;;;;44.10;26.15;;;11.60;77.70;;;;;;5025245;28;20126;-76
2021/05/19 06:11:18;;;;;;;21.02;13.90;;;11.60;77.70;;;;;;5028304;28;20041;-73
2021/05/19 06:13:44;;;;;;;26.60;16.30;;;11.90;78.60;;;;;;5027996;28;20106;-73
2021/05/19 06:16:10;;;;;;;34.03;22.30;;;12.30;78.30;;;;;;5044061;28;20049;-73
2021/05/19 06:18:36;;;;;;;42.72;26.05;;;12.60;77.30;;;;;;5032676;28;20041;-71
2021/05/19 06:21:02;;;;;;;42.55;28.50;;;12.70;76.20;;;;;;5037717;28;20454;-71
2021/05/19 06:23:28;;;;;;;40.30;26.92;;;12.70;75.80;;;;;;5019330;28;20132;-72
2021/05/19 06:25:54;;;;;;;46.33;27.83;;;12.60;75.80;;;;;;5032001;28;20045;-73
2021/05/19 06:28:20;;;;;;;46.35;30.25;;;12.50;75.90;;;;;;5015649;28;20068;-75
2021/05/19 06:30:48;;;;;;;45.70;29.35;;;12.40;76.10;;;;;;5008284;28;20053;-74
2021/05/19 06:33:14;;;;;;;49.20;31.08;;;12.40;76.40;;;;;;5032425;28;20404;-77
2021/05/19 06:35:39;;;;;;;47.97;29.10;;;12.40;76.50;;;;;;5004955;28;20049;-77
2021/05/19 06:38:05;;;;;;;45.25;29.80;;;12.40;76.50;;;;;;5045443;28;20049;-79
2021/05/19 06:40:33;;;;;;;44.60;30.45;;;12.30;76.80;;;;;;5007825;28;20437;-79
2021/05/19 06:43:04;;;;;;;46.00;32.08;;;12.30;76.90;;;;;;4994337;28;20062;-78
2021/05/19 06:45:30;;;;;;;47.08;30.80;;;12.30;77.10;;;;;;5041753;28;20048;-83
2021/05/19 06:47:58;;;;;;;53.30;30.70;;;12.40;77.10;;;;;;5017069;28;20410;-81
2021/05/19 06:50:26;;;;;;;50.35;30.88;;;12.40;77.00;;;;;;5032486;28;20033;-81
2021/05/19 06:52:52;;;;;;;45.95;30.38;;;12.40;77.10;;;;;;5011787;28;20402;-81
2021/05/19 06:55:19;;;;;;;52.35;29.88;;;12.40;77.10;;;;;;4998664;28;20060;-81
2021/05/19 06:57:45;;;;;;;46.25;30.27;;;12.50;77.00;;;;;;5044326;28;20481;-79
2021/05/19 07:00:11;;;;;;;48.88;31.23;;;12.50;77.10;;;;;;5009441;28;20034;-76
2021/05/19 07:02:39;;;;;;;51.47;30.70;;;12.50;76.90;;;;;;5029493;28;20075;-78
2021/05/19 07:05:06;;;;;;;53.08;30.85;;;12.60;77.10;;;;;;5018374;28;20174;-80
2021/05/19 07:07:32;;;;;;;47.03;30.65;;;12.60;76.90;;;;;;5026590;28;20478;-81
2021/05/19 07:09:58;;;;;;;52.75;31.20;;;12.70;76.70;;;;;;5023505;28;20052;-77
2021/05/19 07:12:24;;;;;;;46.03;29.23;;;12.80;76.80;;;;;;5029371;28;20462;-78
2021/05/19 07:14:53;;;;;;;47.28;31.73;;;12.70;76.80;;;;;;5005019;28;20454;-77
2021/05/19 07:17:19;;;;;;;46.47;30.67;;;12.80;76.70;;;;;;5016541;28;20045;-78
2021/05/19 07:19:44;;;;;;;31.88;20.88;;;12.80;77.50;;;;;;5018022;28;20045;-76
2021/05/19 07:22:11;;;;;;;43.45;27.55;;;13.00;77.30;;;;;;5014405;28;20048;-75
2021/05/19 07:24:37;;;;;;;49.65;29.67;;;13.10;76.80;;;;;;5015844;28;20401;-79
2021/05/19 07:27:04;;;;;;;49.00;29.73;;;13.20;76.30;;;;;;5000273;28;20149;-76
2021/05/19 07:29:36;;;;;;;48.85;30.23;;;13.30;76.20;;;;;;5021201;28;20539;-73
2021/05/19 07:32:05;;;;;;;53.30;33.25;;;13.30;76.10;;;;;;5034058;28;20148;-77
2021/05/19 07:34:31;;;;;;;46.53;29.65;;;13.40;75.80;;;;;;5019317;28;20071;-75
2021/05/19 07:37:00;;;;;;;54.75;32.45;;;13.40;75.70;;;;;;4996445;28;20555;-75
2021/05/19 07:39:27;;;;;;;51.35;31.55;;;13.40;75.90;;;;;;5029249;28;20049;-78
2021/05/19 07:41:53;;;;;;;50.22;32.13;;;13.40;75.90;;;;;;5028328;28;20107;-77
2021/05/19 07:44:19;;;;;;;50.42;32.53;;;13.50;75.90;;;;;;4997620;28;20136;-75
2021/05/19 07:46:45;;;;;;;48.72;32.33;;;13.50;75.70;;;;;;5001281;28;20072;-76
2021/05/19 07:49:12;;;;;;;52.63;31.58;;;13.50;75.70;;;;;;5024892;28;20071;-77
2021/05/19 07:51:38;;;;;;;49.90;32.15;;;13.40;75.80;;;;;;5018759;28;20473;-76
2021/05/19 07:54:05;;;;;;;46.85;31.40;;;13.40;75.80;;;;;;5049440;28;20048;-76
2021/05/19 07:59:18;;;;;;;47.83;32.00;;;13.40;75.80;;;;;;5032787;28;20119;-74
2021/05/19 08:02:01;;;;;;;51.67;32.58;;;13.40;75.90;;;;;;5031767;28;20079;-77
2021/05/19 08:04:27;;;;;;;49.25;33.15;;;13.40;75.90;;;;;;5050763;28;20045;-75
2021/05/19 08:06:53;;;;;;;48.35;33.45;;;13.40;75.90;;;;;;5030549;28;20045;-75
2021/05/19 08:09:18;;;;;;;53.58;34.45;;;13.50;76.00;;;;;;5042300;28;20041;-75
2021/05/19 08:11:47;;;;;;;50.83;34.22;;;13.50;75.90;;;;;;5013675;28;20048;-76
2021/05/19 08:14:12;;;;;;;52.28;33.78;;;13.60;75.90;;;;;;5011799;28;20117;-76
2021/05/19 08:16:38;;;;;;;53.20;34.72;;;13.60;75.70;;;;;;5034218;28;20116;-74
2021/05/19 08:19:04;;;;;;;45.72;30.83;;;13.60;75.80;;;;;;5033386;28;20052;-74
2021/05/19 08:21:30;;;;;;;50.25;32.10;;;13.70;75.80;;;;;;4985313;28;20053;-75
2021/05/19 08:23:56;;;;;;;50.20;32.88;;;13.70;75.70;;;;;;5016848;28;20047;-74
2021/05/19 08:26:24;;;;;;;50.42;34.20;;;13.80;75.60;;;;;;5001287;28;20189;-73
2021/05/19 08:28:51;;;;;;;50.70;33.08;;;13.80;75.50;;;;;;5016956;28;20129;-75
2021/05/19 08:31:19;;;;;;;42.78;31.08;;;13.90;75.40;;;;;;5050015;28;20363;-77
2021/05/19 08:33:49;;;;;;;46.40;31.33;;;13.90;75.20;;;;;;5036134;28;20513;-77
2021/05/19 08:36:15;;;;;;;42.13;30.42;;;13.90;74.80;;;;;;5036189;28;20052;-75
2021/05/19 08:38:43;;;;;;;41.53;30.80;;;14.00;75.00;;;;;;5037180;28;20072;-74
2021/05/19 08:41:09;;;;;;;38.40;27.85;;;14.00;74.70;;;;;;5036072;28;20118;-75
2021/05/19 08:43:35;;;;;;;39.55;28.40;;;14.00;74.50;;;;;;5037364;28;20045;-75
2021/05/19 08:46:05;;;;;;;37.90;27.38;;;14.00;74.40;;;;;;5036287;28;20478;-73
2021/05/19 08:48:31;;;;;;;34.70;25.63;;;14.10;74.20;;;;;;5037599;28;20140;-74
2021/05/19 08:50:57;;;;;;;40.80;28.85;;;14.10;73.70;;;;;;5053166;28;20501;-75
2021/05/19 08:53:25;;;;;;;40.30;27.88;;;14.20;73.50;;;;;;5053796;28;20055;-75
2021/05/19 08:55:50;;;;;;;42.10;28.67;;;14.30;73.50;;;;;;5014559;28;20533;-76
2021/05/19 08:58:16;;;;;;;40.35;26.67;;;14.30;73.60;;;;;;5033152;28;20148;-75
2021/05/19 09:00:45;;;;;;;38.15;25.40;;;14.30;73.50;;;;;;5016895;28;20040;-74
2021/05/19 09:03:12;;;;;;;40.00;27.05;;;14.40;73.40;;;;;;5016964;28;20109;-76
2021/05/19 09:05:40;;;;;;;36.50;26.60;;;14.40;73.10;;;;;;5049995;28;20040;-76
2021/05/19 09:08:06;;;;;;;39.38;26.13;;;14.40;72.80;;;;;;5035669;28;20048;-75
2021/05/19 09:10:32;;;;;;;37.10;25.50;;;14.50;72.60;;;;;;5036377;28;20616;-75
2021/05/19 09:12:58;;;;;;;28.45;20.40;;;14.50;72.50;;;;;;5037990;28;20073;-74
2021/05/19 09:15:24;;;;;;;28.73;22.45;;;14.60;72.90;;;;;;5052389;28;20043;-76
2021/05/19 09:17:57;;;;;;;36.90;25.42;;;14.80;72.90;;;;;;5036434;28;20049;-75
2021/05/19 09:20:23;;;;;;;31.42;24.73;;;14.90;72.40;;;;;;5019165;28;20053;-75
2021/05/19 09:23:00;;;;;;;32.05;22.88;;;14.90;72.10;;;;;;5020017;28;20052;-74
2021/05/19 09:25:29;;;;;;;35.58;25.23;;;15.00;71.60;;;;;;5053633;28;20124;-75
2021/05/19 09:27:57;;;;;;;40.03;24.98;;;15.10;71.20;;;;;;5004086;28;20444;-77
2021/05/19 09:30:37;;;;;;;28.65;22.52;;;15.10;70.90;;;;;;5036233;28;20044;-75
2021/05/19 09:33:21;;;;;;;33.15;22.90;;;15.20;70.90;;;;;;5030056;28;20062;-77
2021/05/19 09:36:07;;;;;;;32.45;23.33;;;15.30;70.80;;;;;;5009012;28;20405;-79
2021/05/19 09:38:33;;;;;;;33.97;23.30;;;15.40;70.90;;;;;;5034464;28;20083;-77
2021/05/19 09:41:21;;;;;;;35.78;21.42;;;15.60;71.40;;;;;;5023102;28;20056;-77
2021/05/19 09:43:48;;;;;;;30.95;21.75;;;15.90;72.50;;;;;;5040691;28;20056;-75
2021/05/19 09:46:20;;;;;;;33.33;20.73;;;16.20;71.20;;;;;;5037558;28;20044;-74
2021/05/19 09:48:46;;;;;;;;;;;16.30;70.40;;;;;;5023389;28;20055;-74
2021/05/19 09:51:28;;;;;;;25.88;18.83;;;16.50;70.00;;;;;;5054732;28;19921;-76
2021/05/19 09:53:53;;;;;;;29.02;19.27;;;16.60;69.10;;;;;;5038600;28;20052;-75
2021/05/19 09:56:19;;;;;;;26.13;18.77;;;16.60;68.80;;;;;;5021580;28;20037;-77
2021/05/19 09:58:47;;;;;;;27.27;19.42;;;16.60;68.30;;;;;;5038320;28;20096;-74
2021/05/19 10:01:13;;;;;;;30.63;21.60;;;16.60;67.80;;;;;;5037807;28;20059;-74
2021/05/19 10:03:39;;;;;;;29.52;19.65;;;16.50;67.70;;;;;;5037435;28;20048;-74
2021/05/19 10:08:31;;;;;;;20.60;13.07;;;16.30;67.50;;;;;;5011141;28;20045;-73
2021/05/19 10:11:02;;;;;;;23.98;13.13;;;16.20;67.60;;;;;;5015384;28;20174;-74
2021/05/19 10:13:29;;;;;;;19.48;10.65;;;16.00;67.80;;;;;;5015483;28;20509;-75
2021/05/19 10:15:56;;;;;;;15.85;9.07;;;15.80;68.20;;;;;;5018528;28;20048;-75
2021/05/19 10:18:22;;;;;;;17.77;8.57;;;15.70;68.70;;;;;;5018987;28;20115;-75
2021/05/19 10:20:54;;;;;;;10.70;7.07;;;15.50;69.20;;;;;;5001829;28;20064;-75
2021/05/19 10:23:40;;;;;;;13.68;7.65;;;15.40;69.60;;;;;;5038357;28;20150;-74
2021/05/19 10:26:10;;;;;;;16.02;7.78;;;15.20;69.90;;;;;;4999660;28;20128;-75
2021/05/19 10:28:46;;;;;;;14.82;7.57;;;15.10;70.50;;;;;;5013632;28;20084;-73
2021/05/19 10:31:28;;;;;;;13.52;8.95;;;15.00;70.80;;;;;;5014132;28;20050;-74
2021/05/19 10:34:01;;;;;;;17.90;8.97;;;15.00;71.30;;;;;;5010924;28;20061;-73
2021/05/19 10:36:33;;;;;;;13.55;9.40;;;14.90;71.50;;;;;;4979519;28;20502;-75
2021/05/19 10:41:39;;;;;;;16.65;9.45;;;14.70;72.10;;;;;;5011714;28;20042;-75
2021/05/19 10:44:09;;;;;;;14.57;9.23;;;14.70;72.50;;;;;;4980194;28;20602;-77
2021/05/19 10:47:16;;;;;;;11.75;8.75;;;14.60;72.70;;;;;;4996062;28;20037;-76
2021/05/19 10:50:11;;;;;;;16.83;9.80;;;14.60;72.80;;;;;;5016370;28;20081;-75
2021/05/19 11:01:10;;;;;;;13.23;8.45;;;14.10;73.30;;;;;;4995087;28;20049;-80
2021/05/19 11:03:39;;;;;;;10.25;7.53;;;14.10;73.50;;;;;;4993451;28;20042;-75
2021/05/19 11:06:09;;;;;;;10.77;6.88;;;14.10;73.70;;;;;;5014146;28;20132;-75
2021/05/19 11:08:36;;;;;;;15.30;6.80;;;14.00;73.60;;;;;;5009117;28;20387;-76
2021/05/19 11:11:19;;;;;;;8.00;5.90;;;13.90;73.60;;;;;;5009228;28;20065;-78
2021/05/19 11:14:01;;;;;;;7.63;5.07;;;13.90;73.60;;;;;;5009966;28;20041;-72
2021/05/19 11:17:33;;;;;;;7.40;4.40;;;13.90;73.70;;;;;;4979541;28;20053;-75
2021/05/19 11:19:37;;;;;;;8.30;5.25;;;13.80;73.50;;;;;;5004247;28;20054;-73
2021/05/19 11:22:08;;;;;;;9.45;7.32;;;13.80;73.60;;;;;;5010783;28;20095;-74
2021/05/19 11:25:07;;;;;;;12.10;7.43;;;13.80;73.70;;;;;;5009568;28;20445;-74
2021/05/19 11:27:34;;;;;;;11.85;8.70;;;13.70;74.00;;;;;;4998991;28;20057;-74
2021/05/19 11:30:00;;;;;;;11.70;8.50;;;13.60;74.00;;;;;;4992699;28;20479;-75
2021/05/19 11:32:30;;;;;;;11.15;9.02;;;13.60;74.30;;;;;;5011958;28;20049;-75
2021/05/19 11:35:16;;;;;;;12.95;9.55;;;13.60;74.40;;;;;;5009432;28;20038;-75
2021/05/19 11:37:55;;;;;;;14.80;10.05;;;13.60;75.00;;;;;;5011035;28;20044;-74
2021/05/19 11:40:21;;;;;;;13.75;10.23;;;13.60;75.00;;;;;;5016684;28;20056;-75
2021/05/19 11:42:57;;;;;;;15.30;10.30;;;13.60;75.20;;;;;;5031987;28;20092;-74
2021/05/19 11:45:23;;;;;;;16.77;10.70;;;13.60;75.30;;;;;;5015997;28;20101;-77
2021/05/19 11:47:49;;;;;;;12.20;9.30;;;13.60;75.20;;;;;;5017161;28;20046;-74
2021/05/19 11:50:19;;;;;;;17.48;10.85;;;13.60;75.40;;;;;;4999900;28;20053;-74
2021/05/19 11:52:50;;;;;;;14.18;9.82;;;13.60;75.50;;;;;;5016517;28;20137;-74
2021/05/19 11:55:36;;;;;;;11.57;8.55;;;13.70;75.60;;;;;;4999571;28;20052;-74
2021/05/19 11:58:23;;;;;;;11.40;8.65;;;13.70;75.70;;;;;;5031274;28;20048;-75
2021/05/19 12:01:01;;;;;;;11.00;7.80;;;13.80;75.50;;;;;;5017711;28;20193;-74
2021/05/19 12:03:29;;;;;;;11.73;7.82;;;13.80;75.50;;;;;;5015435;28;20095;-74
2021/05/19 12:06:08;;;;;;;11.45;7.43;;;13.90;75.30;;;;;;5017774;28;20052;-73
2021/05/19 12:08:48;;;;;;;11.38;7.03;;;14.00;75.30;;;;;;5016678;28;20169;-73
2021/05/19 12:11:19;;;;;;;10.60;7.70;;;14.10;75.20;;;;;;5017604;28;20133;-74
2021/05/19 12:14:00;;;;;;;9.70;7.43;;;14.10;74.90;;;;;;5015131;28;20034;-73
2021/05/19 12:16:38;;;;;;;10.65;8.20;;;14.10;75.00;;;;;;5016164;28;20060;-79
2021/05/19 12:19:14;;;;;;;12.07;7.88;;;14.20;75.10;;;;;;5000391;28;20046;-74
2021/05/19 12:21:43;;;;;;;9.55;7.97;;;14.20;75.80;;;;;;4999184;28;20046;-77
2021/05/19 12:24:09;;;;;;;10.57;7.55;;;14.20;75.00;;;;;;5000182;28;20391;-75
2021/05/19 12:26:36;;;;;;;9.82;6.57;;;14.20;75.00;;;;;;5016420;28;20049;-74
2021/05/19 12:29:23;;;;;;;9.68;7.18;;;14.20;74.80;;;;;;5017929;28;20048;-74
2021/05/19 12:31:50;;;;;;;12.07;7.80;;;14.30;74.90;;;;;;5035411;28;20402;-75
2021/05/19 12:34:16;;;;;;;11.00;7.50;;;14.20;74.70;;;;;;5039180;28;20057;-75
2021/05/19 12:36:42;;;;;;;10.20;8.02;;;14.20;74.70;;;;;;5038074;28;20394;-72
2021/05/19 12:39:08;;;;;;;10.63;7.25;;;14.20;74.70;;;;;;5039002;28;20370;-73
2021/05/19 12:41:53;;;;;;;13.98;8.65;;;14.30;74.80;;;;;;5021840;28;20136;-74
2021/05/19 12:44:19;;;;;;;12.52;7.82;;;14.30;74.80;;;;;;5056186;28;20551;-74
2021/05/19 12:47:07;;;;;;;11.35;7.85;;;14.30;74.80;;;;;;5039492;28;20119;-76
2021/05/19 12:49:38;;;;;;;11.32;7.80;;;14.50;75.30;;;;;;5035974;28;20047;-76
2021/05/19 12:52:06;;;;;;;13.68;8.02;;;14.50;74.80;;;;;;5019680;28;20068;-75
2021/05/19 12:54:33;;;;;;;10.77;7.25;;;14.60;74.70;;;;;;5003500;28;20486;-78